createdAt,value
2023-04-18T00:03:15.190Z,99058.69
2023-04-18T00:06:32.390Z,99054.88
2023-04-18T00:09:49.019Z,99056.68
2023-04-18T00:13:06.883Z,99062.64
2023-04-18T00:16:23.362Z,99053.22
2023-04-18T00:19:42.394Z,99051.39
2023-04-18T00:22:58.857Z,99057.53
2023-04-18T00:26:15.391Z,99051.73
2023-04-18T00:29:33.121Z,99056.19
2023-04-18T00:32:49.772Z,99048.74
2023-04-18T00:36:06.952Z,99060.84
2023-04-18T00:39:23.983Z,99056.36
2023-04-18T00:42:40.931Z,99058.69
2023-04-18T00:45:57.911Z,99065.64
2023-04-18T00:49:16.319Z,99061.97
2023-04-18T00:52:36.928Z,99064.13
2023-04-18T00:55:53.945Z,99058.83
2023-04-18T00:59:11.152Z,99057.34
2023-04-18T01:02:30.887Z,99066.13
2023-04-18T01:05:45.754Z,99061.83
2023-04-18T01:09:03.133Z,99071.25
2023-04-18T01:12:20.591Z,99069.27
2023-04-18T01:15:38.369Z,99073.57
2023-04-18T01:18:55.034Z,99069.94
2023-04-18T01:22:12.334Z,99079.67
2023-04-18T01:25:29.706Z,99087.96
2023-04-18T01:28:47.778Z,99074.73
2023-04-18T01:32:04.458Z,99083.48
2023-04-18T01:35:21.894Z,99083.83
2023-04-18T01:38:38.536Z,99082.00
2023-04-18T01:41:55.261Z,99084.81
2023-04-18T01:45:15.175Z,99082.98
2023-04-18T01:48:31.612Z,99077.86
2023-04-18T01:51:48.522Z,99078.20
2023-04-18T01:55:04.938Z,99084.14
2023-04-18T01:58:23.791Z,99086.96
2023-04-18T02:01:40.813Z,99088.79
2023-04-18T02:04:57.891Z,99080.51
2023-04-18T02:08:14.950Z,99093.56
2023-04-18T02:11:33.375Z,99085.63
2023-04-18T02:14:51.952Z,99100.52
2023-04-18T02:18:08.468Z,99083.16
2023-04-18T02:21:27.179Z,99097.38
2023-04-18T02:24:43.646Z,99098.36
2023-04-18T02:28:00.663Z,99095.23
2023-04-18T02:31:19.794Z,99100.86
2023-04-18T02:34:36.443Z,99092.75
2023-04-18T02:37:53.143Z,99087.46
2023-04-18T02:41:09.570Z,99093.23
2023-04-18T02:44:26.136Z,99081.19
2023-04-18T02:47:54.765Z,99075.89
2023-04-18T02:51:11.749Z,99089.94
2023-04-18T02:54:28.669Z,99088.27
2023-04-18T02:57:52.342Z,99096.07
2023-04-18T03:01:15.671Z,99097.88
2023-04-18T03:04:39.723Z,99092.75
2023-04-18T03:07:57.545Z,99101.68
2023-04-18T03:11:14.605Z,99104.66
2023-04-18T03:14:32.556Z,99095.71
2023-04-18T03:17:49.382Z,99102.02
2023-04-18T03:21:08.192Z,99105.66
2023-04-18T03:24:25.660Z,99114.41
2023-04-18T03:27:43.811Z,99108.61
2023-04-18T03:31:01.883Z,99118.20
2023-04-18T03:34:20.284Z,99114.89
2023-04-18T03:37:38.834Z,99118.20
2023-04-18T03:40:57.106Z,99125.98
2023-04-18T03:44:15.840Z,99124.34
2023-04-18T03:47:32.602Z,99124.17
2023-04-18T03:50:49.152Z,99129.95
2023-04-18T03:54:06.118Z,99129.95
2023-04-18T03:57:22.759Z,99134.42
2023-04-18T04:00:41.111Z,99129.13
2023-04-18T04:03:58.309Z,99141.69
2023-04-18T04:07:15.550Z,99148.80
2023-04-18T04:10:32.483Z,99148.95
2023-04-18T04:13:50.196Z,99146.30
2023-04-18T04:17:06.348Z,99158.72
2023-04-18T04:20:25.789Z,99157.87
2023-04-18T04:23:44.444Z,99168.79
2023-04-18T04:27:04.649Z,99167.80
2023-04-18T04:30:23.659Z,99174.76
2023-04-18T04:33:51.379Z,99189.61
2023-04-18T04:37:09.060Z,99189.48
2023-04-18T04:40:28.298Z,99193.92
2023-04-18T04:43:47.457Z,99196.73
2023-04-18T04:47:05.794Z,99197.41
2023-04-18T04:50:26.603Z,99198.23
2023-04-18T04:53:43.218Z,99203.22
2023-04-18T04:56:59.991Z,99210.30
2023-04-18T05:00:21.945Z,99216.75
2023-04-18T05:03:42.430Z,99219.39
2023-04-18T05:06:59.321Z,99206.64
2023-04-18T05:10:18.148Z,99212.61
2023-04-18T05:13:34.932Z,99224.86
2023-04-18T05:16:51.888Z,99220.72
2023-04-18T05:20:09.565Z,99220.38
2023-04-18T05:23:26.068Z,99222.20
2023-04-18T05:26:42.674Z,99229.30
2023-04-18T05:29:59.457Z,99234.11
2023-04-18T05:33:17.506Z,99233.94
2023-04-18T05:36:34.123Z,99231.95
2023-04-18T05:39:50.891Z,99243.68
2023-04-18T05:43:08.253Z,99234.45
2023-04-18T05:46:24.750Z,99242.53
2023-04-18T05:49:41.691Z,99240.56
2023-04-18T05:53:00.230Z,99243.72
2023-04-18T05:56:17.357Z,99244.53
2023-04-18T05:59:34.135Z,99245.89
2023-04-18T06:02:51.745Z,99246.74
2023-04-18T06:06:08.494Z,99249.22
2023-04-18T06:09:24.999Z,99242.78
2023-04-18T06:12:41.579Z,99251.39
2023-04-18T06:15:58.293Z,99253.53
2023-04-18T06:19:14.755Z,99259.50
2023-04-18T06:22:31.473Z,99267.44
2023-04-18T06:25:52.211Z,99272.88
2023-04-18T06:29:08.832Z,99268.25
2023-04-18T06:32:25.475Z,99272.73
2023-04-18T06:35:42.229Z,99275.38
2023-04-18T06:38:59.281Z,99282.81
2023-04-18T06:42:15.941Z,99287.09
2023-04-18T06:45:37.633Z,99280.16
2023-04-18T06:48:55.261Z,99288.23
2023-04-18T06:52:11.925Z,99288.41
2023-04-18T06:55:29.362Z,99283.80
2023-04-18T06:58:46.244Z,99291.73
2023-04-18T07:02:02.916Z,99296.86
2023-04-18T07:05:19.839Z,99294.55
2023-04-18T07:08:36.920Z,99303.69
2023-04-18T07:11:53.583Z,99299.04
2023-04-18T07:15:10.586Z,99298.43
2023-04-18T07:18:37.201Z,99304.23
2023-04-18T07:21:47.007Z,99302.41
2023-04-18T07:25:03.451Z,99314.86
2023-04-18T07:28:20.456Z,99311.88
2023-04-18T07:31:37.304Z,99318.35
2023-04-18T07:34:54.983Z,99314.54
2023-04-18T07:38:12.806Z,99325.17
2023-04-18T07:41:29.184Z,99325.84
2023-04-18T07:44:46.749Z,99322.44
2023-04-18T07:48:04.581Z,99328.25
2023-04-18T07:51:21.600Z,99323.38
2023-04-18T07:54:37.986Z,99326.84
2023-04-18T07:57:54.563Z,99334.22
2023-04-18T08:01:13.502Z,99333.30
2023-04-18T08:04:30.776Z,99334.30
2023-04-18T08:07:47.885Z,99336.77
2023-04-18T08:11:07.368Z,99329.48
2023-04-18T08:14:23.907Z,99345.33
2023-04-18T08:17:40.452Z,99354.89
2023-04-18T08:20:57.459Z,99348.20
2023-04-18T08:24:14.824Z,99349.72
2023-04-18T08:27:32.476Z,99360.95
2023-04-18T08:30:50.106Z,99364.23
2023-04-18T08:34:06.708Z,99361.08
2023-04-18T08:37:23.430Z,99355.22
2023-04-18T08:40:40.181Z,99360.48
2023-04-18T08:43:59.137Z,99372.28
2023-04-18T08:47:16.388Z,99368.63
2023-04-18T08:50:33.188Z,99365.77
2023-04-18T08:53:51.602Z,99359.34
2023-04-18T08:57:21.454Z,99361.69
2023-04-18T09:00:38.130Z,99364.05
2023-04-18T09:03:54.455Z,99342.64
2023-04-18T09:07:12.695Z,99352.73
2023-04-18T09:10:39.307Z,99356.23
2023-04-18T09:13:57.436Z,99345.31
2023-04-18T09:17:14.089Z,99356.71
2023-04-18T09:20:41.907Z,99338.74
2023-04-18T09:23:58.547Z,99354.97
2023-04-18T09:27:19.696Z,99344.16
2023-04-18T09:30:47.527Z,99350.23
2023-04-18T09:34:04.062Z,99343.50
2023-04-18T09:37:21.763Z,99351.66
2023-04-18T09:40:38.545Z,99349.37
2023-04-18T09:43:55.315Z,99353.90
2023-04-18T09:47:13.779Z,99344.02
2023-04-18T09:50:30.238Z,99335.20
2023-04-18T09:53:51.159Z,99347.06
2023-04-18T09:57:08.979Z,99356.39
2023-04-18T10:00:31.529Z,99345.55
2023-04-18T10:03:53.887Z,99344.75
2023-04-18T10:07:10.985Z,99344.58
2023-04-18T10:10:27.696Z,99352.44
2023-04-18T10:13:47.208Z,99342.13
2023-04-18T10:17:04.459Z,99350.22
2023-04-18T10:20:28.559Z,99354.86
2023-04-18T10:23:48.445Z,99336.94
2023-04-18T10:27:05.979Z,99336.45
2023-04-18T10:30:24.345Z,99335.23
2023-04-18T10:33:49.707Z,99337.27
2023-04-18T10:37:15.535Z,99330.26
2023-04-18T10:40:43.700Z,99322.63
2023-04-18T10:44:25.044Z,99337.80
2023-04-18T10:47:41.711Z,99308.16
2023-04-18T10:51:25.413Z,99321.53
2023-04-18T10:54:47.478Z,99313.34
2023-04-18T10:58:06.778Z,99334.09
2023-04-18T11:01:32.360Z,99320.89
2023-04-18T11:04:49.060Z,99308.34
2023-04-18T11:08:05.914Z,99321.27
2023-04-18T11:11:23.093Z,99314.84
2023-04-18T11:14:51.008Z,99311.75
2023-04-18T11:18:09.944Z,99323.22
2023-04-18T11:21:29.850Z,99320.41
2023-04-18T11:24:46.858Z,99322.65
2023-04-18T11:28:05.932Z,99320.34
2023-04-18T11:31:24.682Z,99312.81
2023-04-18T11:34:41.934Z,99317.95
2023-04-18T11:37:59.855Z,99310.57
2023-04-18T11:41:21.871Z,99316.34
2023-04-18T11:44:40.120Z,99304.00
2023-04-18T11:47:59.546Z,99309.13
2023-04-18T11:51:32.158Z,99306.61
2023-04-18T11:54:52.970Z,99302.56
2023-04-18T11:58:11.518Z,99311.14
2023-04-18T12:01:30.890Z,99301.45
2023-04-18T12:05:05.376Z,99304.91
2023-04-18T12:08:25.501Z,99293.41
2023-04-18T12:11:41.819Z,99294.22
2023-04-18T12:15:05.558Z,99298.98
2023-04-18T12:18:25.790Z,99295.03
2023-04-18T12:21:44.768Z,99300.34
2023-04-18T12:25:28.204Z,99293.32
2023-04-18T12:28:45.132Z,99283.48
2023-04-18T12:32:02.061Z,99297.91
2023-04-18T12:35:19.821Z,99293.15
2023-04-18T12:38:37.872Z,99272.43
2023-04-18T12:41:55.110Z,99272.28
2023-04-18T12:45:16.372Z,99286.45
2023-04-18T12:48:32.833Z,99275.13
2023-04-18T12:51:49.248Z,99279.89
2023-04-18T12:55:06.637Z,99278.66
2023-04-18T12:58:23.412Z,99279.45
2023-04-18T13:01:40.177Z,99279.28
2023-04-18T13:04:57.751Z,99285.80
2023-04-18T13:08:17.653Z,99280.23
2023-04-18T13:11:33.430Z,99278.31
2023-04-18T13:14:50.249Z,99274.52
2023-04-18T13:18:08.073Z,99283.75
2023-04-18T13:21:29.311Z,99278.31
2023-04-18T13:24:45.754Z,99275.94
2023-04-18T13:28:02.856Z,99265.75
2023-04-18T13:31:19.202Z,99267.41
2023-04-18T13:34:35.760Z,99267.03
2023-04-18T13:37:54.051Z,99277.86
2023-04-18T13:41:13.300Z,99268.19
2023-04-18T13:44:29.459Z,99267.41
2023-04-18T13:47:45.784Z,99256.13
2023-04-18T13:51:03.224Z,99266.16
2023-04-18T13:54:28.845Z,99251.58
2023-04-18T13:57:52.158Z,99247.25
2023-04-18T14:01:09.459Z,99251.83
2023-04-18T14:07:42.311Z,99252.67
2023-04-18T14:10:59.076Z,99262.05
2023-04-18T14:14:15.690Z,99254.67
2023-04-18T14:17:32.334Z,99252.01
2023-04-18T14:20:49.424Z,99246.41
2023-04-18T14:24:05.849Z,99251.74
2023-04-18T14:27:22.492Z,99251.13
2023-04-18T14:30:39.512Z,99247.02
2023-04-18T14:37:00.643Z,99246.14
2023-04-18T14:40:20.226Z,99242.22
2023-04-18T14:43:37.045Z,99251.04
2023-04-18T14:46:53.801Z,99246.52
2023-04-18T14:50:14.065Z,99242.63
2023-04-18T14:53:30.682Z,99244.05
2023-04-18T14:56:47.103Z,99246.34
2023-04-18T15:00:03.797Z,99252.05
2023-04-18T15:03:20.448Z,99241.58
2023-04-18T15:06:37.165Z,99231.55
2023-04-18T15:09:58.507Z,99230.74
2023-04-18T15:13:15.026Z,99227.47
2023-04-18T15:16:32.068Z,99231.78
2023-04-18T15:19:51.396Z,99237.36
2023-04-18T15:23:09.971Z,99233.27
2023-04-18T15:26:27.077Z,99240.46
2023-04-18T15:29:45.816Z,99240.90
2023-04-18T15:33:08.308Z,99235.56
2023-04-18T15:36:24.849Z,99232.28
2023-04-18T15:39:41.619Z,99240.69
2023-04-18T15:43:01.518Z,99236.34
2023-04-18T15:46:18.301Z,99236.52
2023-04-18T15:49:35.243Z,99237.56
2023-04-18T15:52:51.690Z,99245.36
2023-04-18T15:56:08.241Z,99243.27
2023-04-18T15:59:25.139Z,99242.83
2023-04-18T16:02:41.780Z,99239.29
2023-04-18T16:05:58.791Z,99244.83
2023-04-18T16:09:15.473Z,99247.26
2023-04-18T16:12:31.895Z,99243.14
2023-04-18T16:15:49.189Z,99243.34
2023-04-18T16:19:22.841Z,99240.03
2023-04-18T16:22:39.606Z,99245.89
2023-04-18T16:25:56.156Z,99238.27
2023-04-18T16:29:14.154Z,99242.14
2023-04-18T16:32:32.405Z,99241.33
2023-04-18T16:35:48.922Z,99242.55
2023-04-18T16:39:11.476Z,99237.98
2023-04-18T16:42:28.002Z,99244.33
2023-04-18T16:45:44.390Z,99235.68
2023-04-18T16:49:02.403Z,99242.42
2023-04-18T16:52:18.894Z,99230.95
2023-04-18T16:55:35.624Z,99229.66
2023-04-18T16:58:51.917Z,99226.19
2023-04-18T17:02:09.084Z,99227.39
2023-04-18T17:05:27.352Z,99228.60
2023-04-18T17:08:43.733Z,99228.60
2023-04-18T17:12:03.448Z,99235.14
2023-04-18T17:15:20.463Z,99230.83
2023-04-18T17:18:36.949Z,99230.17
2023-04-18T17:21:53.340Z,99226.05
2023-04-18T17:25:11.655Z,99222.13
2023-04-18T17:28:32.037Z,99228.47
2023-04-18T17:31:48.490Z,99229.28
2023-04-18T17:35:07.018Z,99233.80
2023-04-18T17:38:23.805Z,99227.83
2023-04-18T17:41:43.598Z,99234.20
2023-04-18T17:44:59.972Z,99227.41
2023-04-18T17:48:17.931Z,99232.73
2023-04-18T17:51:35.302Z,99230.23
2023-04-18T17:54:51.906Z,99223.45
2023-04-18T17:58:08.697Z,99226.59
2023-04-18T18:01:27.123Z,99228.09
2023-04-18T18:04:44.019Z,99219.79
2023-04-18T18:08:00.801Z,99222.35
2023-04-18T18:11:18.208Z,99225.63
2023-04-18T18:14:35.076Z,99225.63
2023-04-18T18:17:56.115Z,99221.86
2023-04-18T18:21:12.817Z,99226.64
2023-04-18T18:24:35.446Z,99223.53
2023-04-18T18:27:52.494Z,99230.39
2023-04-18T18:31:11.052Z,99231.95
2023-04-18T18:34:28.694Z,99231.38
2023-04-18T18:37:47.164Z,99225.89
2023-04-18T18:41:05.739Z,99227.81
2023-04-18T18:44:28.568Z,99221.64
2023-04-18T18:47:45.830Z,99224.95
2023-04-18T18:51:02.457Z,99221.28
2023-04-18T18:54:33.942Z,99218.78
2023-04-18T18:57:55.433Z,99224.11
2023-04-18T19:01:12.353Z,99219.63
2023-04-18T19:04:34.043Z,99216.96
2023-04-18T19:07:52.440Z,99215.86
2023-04-18T19:11:09.932Z,99210.73
2023-04-18T19:14:26.633Z,99207.61
2023-04-18T19:17:43.020Z,99206.80
2023-04-18T19:20:59.765Z,99209.46
2023-04-18T19:24:26.710Z,99208.00
2023-04-18T19:27:43.541Z,99198.45
2023-04-18T19:31:00.219Z,99205.88
2023-04-18T19:34:19.109Z,99199.91
2023-04-18T19:37:36.949Z,99202.58
2023-04-18T19:40:53.785Z,99201.95
2023-04-18T19:44:10.723Z,99203.97
2023-04-18T19:47:28.297Z,99195.52
2023-04-18T19:50:49.541Z,99203.89
2023-04-18T19:54:05.940Z,99202.05
2023-04-18T19:57:22.898Z,99204.98
2023-04-18T20:00:40.401Z,99197.39
2023-04-18T20:03:59.459Z,99195.92
2023-04-18T20:07:14.029Z,99194.89
2023-04-18T20:10:31.511Z,99191.41
2023-04-18T20:13:48.322Z,99182.70
2023-04-18T20:17:04.906Z,99186.02
2023-04-18T20:20:22.352Z,99192.15
2023-04-18T20:23:38.824Z,99178.39
2023-04-18T20:26:55.260Z,99185.55
2023-04-18T20:30:13.225Z,99180.23
2023-04-18T20:33:29.753Z,99177.11
2023-04-18T20:36:47.407Z,99175.65
2023-04-18T20:40:05.561Z,99170.68
2023-04-18T20:43:22.348Z,99165.55
2023-04-18T20:46:38.909Z,99164.90
2023-04-18T20:49:57.568Z,99168.75
2023-04-18T20:53:14.270Z,99162.70
2023-04-18T20:56:30.721Z,99159.58
2023-04-18T20:59:47.058Z,99152.90
2023-04-18T21:03:03.471Z,99155.28
2023-04-18T21:06:22.217Z,99144.16
2023-04-18T21:09:41.749Z,99142.75
2023-04-18T21:12:58.147Z,99140.09
2023-04-18T21:16:15.585Z,99143.41
2023-04-18T21:19:32.641Z,99131.59
2023-04-18T21:22:49.030Z,99133.78
2023-04-18T21:26:05.657Z,99134.97
2023-04-18T21:29:22.719Z,99120.69
2023-04-18T21:32:39.024Z,99120.49
2023-04-18T21:35:57.139Z,99121.69
2023-04-18T21:39:13.821Z,99122.22
2023-04-18T21:42:30.185Z,99120.38
2023-04-18T21:45:46.554Z,99113.88
2023-04-18T21:49:03.103Z,99100.77
2023-04-18T21:52:19.602Z,99108.55
2023-04-18T21:55:36.540Z,99106.93
2023-04-18T21:58:53.115Z,99109.40
2023-04-18T22:02:10.420Z,99103.43
2023-04-18T22:05:28.955Z,99102.50
2023-04-18T22:08:45.610Z,99093.91
2023-04-18T22:12:03.880Z,99098.94
2023-04-18T22:15:21.044Z,99094.16
2023-04-18T22:18:38.823Z,99082.41
2023-04-18T22:21:55.154Z,99082.78
2023-04-18T22:25:12.545Z,99085.45
2023-04-18T22:28:28.921Z,99083.78
2023-04-18T22:31:45.521Z,99077.92
2023-04-18T22:35:02.642Z,99077.63
2023-04-18T22:38:19.348Z,99070.48
2023-04-18T22:41:35.759Z,99072.20
2023-04-18T22:44:52.792Z,99066.31
2023-04-18T22:48:11.059Z,99063.38
2023-04-18T22:51:29.236Z,99061.53
2023-04-18T22:54:47.998Z,99048.98
2023-04-18T22:58:04.342Z,99052.19
2023-04-18T23:01:21.382Z,99057.94
2023-04-18T23:04:40.864Z,99047.69
2023-04-18T23:08:00.112Z,99038.86
2023-04-18T23:11:17.915Z,99041.44
2023-04-18T23:14:35.309Z,99026.88
2023-04-18T23:17:51.673Z,99027.83
2023-04-18T23:21:09.677Z,99028.17
2023-04-18T23:24:27.265Z,99019.81
2023-04-18T23:27:43.824Z,99013.61
2023-04-18T23:31:00.388Z,99016.37
2023-04-18T23:34:17.472Z,99007.50
2023-04-18T23:37:34.010Z,99007.06
2023-04-18T23:40:50.357Z,98997.45
2023-04-18T23:44:07.169Z,98986.98
2023-04-18T23:47:23.577Z,98988.83
2023-04-18T23:50:41.257Z,98978.40
2023-04-18T23:53:58.851Z,98980.40
2023-04-18T23:57:15.180Z,98976.47
